createdAt,value
2019-06-01T00:00:12.263Z,90.9
2019-06-01T00:01:00.647Z,90.9
2019-06-01T00:02:02.044Z,90.9
2019-06-01T00:03:02.497Z,91
2019-06-01T00:04:03.907Z,91
2019-06-01T00:05:05.305Z,90.9
2019-06-01T00:06:06.704Z,91
2019-06-01T00:09:10.389Z,91.1
2019-06-01T00:10:11.798Z,91
2019-06-01T00:11:13.187Z,91.2
2019-06-01T00:14:16.261Z,91.2
2019-06-01T00:15:17.656Z,91.2
2019-06-01T00:16:19.049Z,91.2
2019-06-01T00:17:20.448Z,91.2
2019-06-01T00:18:21.868Z,91.2
2019-06-01T00:19:23.267Z,91.2
2019-06-01T00:20:24.662Z,91.2
2019-06-01T00:22:27.187Z,91.3
2019-06-01T00:23:27.973Z,91.3
2019-06-01T00:24:29.375Z,91.3
2019-06-01T00:28:34.186Z,91.2
2019-06-01T00:29:35.579Z,91.2
2019-06-01T00:30:36.977Z,91.2
2019-06-01T00:31:38.413Z,91.2
2019-06-01T00:32:41.063Z,91.1
2019-06-01T00:33:41.310Z,91.2
2019-06-01T00:34:41.763Z,91.3
2019-06-01T00:35:43.645Z,91.3
2019-06-01T00:36:43.696Z,91.3
2019-06-01T00:37:45.751Z,91.3
2019-06-01T00:38:46.013Z,91.3
2019-06-01T00:39:47.988Z,91.3
2019-06-01T00:40:48.375Z,91.2
2019-06-01T00:41:50.387Z,91.2
2019-06-01T00:43:52.598Z,91.3
2019-06-01T00:44:52.641Z,91.2
2019-06-01T00:45:53.335Z,91.3
2019-06-01T00:46:53.727Z,91.4
2019-06-01T00:47:55.115Z,91.4
2019-06-01T00:48:56.548Z,91.3
2019-06-01T00:49:57.949Z,91.3
2019-06-01T00:54:02.116Z,91
2019-06-01T00:55:03.506Z,91.3
2019-06-01T01:00:09.444Z,91.3
2019-06-01T01:01:10.858Z,91.3
2019-06-01T01:02:12.241Z,91.3
2019-06-01T01:03:13.632Z,91.3
2019-06-01T01:04:14.365Z,91.3
2019-06-01T01:05:15.788Z,91.6
2019-06-01T01:06:17.183Z,91.3
2019-06-01T01:09:20.868Z,91.6
2019-06-01T01:10:22.263Z,91.2
2019-06-01T01:11:23.670Z,91.3
2019-06-01T01:12:25.062Z,91.3
2019-06-01T01:13:26.452Z,91.3
2019-06-01T01:14:27.241Z,91.3
2019-06-01T01:15:28.636Z,91.3
2019-06-01T01:18:32.289Z,91.3
2019-06-01T01:19:33.707Z,91.3
2019-06-01T01:20:35.106Z,91.4
2019-06-01T01:21:36.501Z,91.4
2019-06-01T01:22:37.903Z,91.4
2019-06-01T01:24:39.821Z,91.4
2019-06-01T01:26:41.548Z,91.5
2019-06-01T01:27:42.948Z,91.5
2019-06-01T01:29:46.904Z,91.4
2019-06-01T01:31:47.190Z,91.4
2019-06-01T01:32:49.657Z,91.4
2019-06-01T01:33:49.509Z,91.4
2019-06-01T01:34:50.049Z,91.3
2019-06-01T01:36:54.299Z,91.3
2019-06-01T01:37:53.971Z,91.3
2019-06-01T01:39:54.691Z,91.4
2019-06-01T01:40:56.403Z,91.3
2019-06-01T01:41:56.779Z,91.4
2019-06-01T01:42:59.103Z,91.4
2019-06-01T01:43:59.487Z,91.4
2019-06-01T01:46:01.402Z,91.4
2019-06-01T01:47:02.895Z,91.4
2019-06-01T01:48:04.283Z,91.4
2019-06-01T01:49:05.689Z,91.4
2019-06-01T01:50:07.107Z,91.3
2019-06-01T01:51:08.504Z,91.3
2019-06-01T01:52:09.903Z,91.3
2019-06-01T01:53:11.291Z,91.2
2019-06-01T01:54:12.695Z,91.3
2019-06-01T01:56:14.787Z,91.3
2019-06-01T01:57:16.186Z,91.3
2019-06-01T01:58:17.583Z,91.3
2019-06-01T01:59:18.969Z,91.3
2019-06-01T02:00:20.397Z,91.3
2019-06-01T02:01:23.480Z,91.3
2019-06-01T02:02:22.853Z,91.3
2019-06-01T02:04:25.370Z,91.4
2019-06-01T02:05:26.161Z,91.3
2019-06-01T02:06:29.604Z,91.3
2019-06-01T02:07:28.955Z,91.3
2019-06-01T02:08:30.359Z,91.3
2019-06-01T02:09:31.765Z,91.3
2019-06-01T02:10:33.175Z,91.2
2019-06-01T02:11:34.577Z,91.2
2019-06-01T02:12:35.965Z,91.2
2019-06-01T02:13:37.367Z,91.2
2019-06-01T02:14:38.755Z,91.3
2019-06-01T02:15:39.553Z,91.3
2019-06-01T02:16:40.950Z,91.3
2019-06-01T02:17:42.352Z,91.4
2019-06-01T02:18:43.743Z,91.4
2019-06-01T02:19:45.137Z,91.3
2019-06-01T02:20:46.568Z,91.3
2019-06-01T02:21:47.513Z,91.3
2019-06-01T02:22:48.915Z,91.3
2019-06-01T02:23:49.852Z,91.4
2019-06-01T02:25:53.002Z,91.5
2019-06-01T02:26:53.251Z,91.4
2019-06-01T02:27:55.177Z,91.4
2019-06-01T02:29:57.275Z,91.4
2019-06-01T02:30:59.741Z,91.4
2019-06-01T02:32:01.483Z,91.4
2019-06-01T02:33:02.199Z,91.5
2019-06-01T02:34:05.512Z,91.4
2019-06-01T02:36:05.355Z,91.5
2019-06-01T02:42:08.490Z,91.6
2019-06-01T02:43:09.912Z,91.6
2019-06-01T02:44:11.290Z,91.6
2019-06-01T02:46:13.211Z,91.6
2019-06-01T02:47:14.605Z,91.6
2019-06-01T02:52:20.557Z,91.4
2019-06-01T02:53:21.954Z,91.4
2019-06-01T02:54:23.349Z,91.6
2019-06-01T02:56:25.291Z,91.4
2019-06-01T02:57:26.682Z,91.8
2019-06-01T02:58:28.086Z,91.4
2019-06-01T03:00:30.610Z,91.5
2019-06-01T03:01:32.031Z,91.5
2019-06-01T03:02:33.430Z,91.5
2019-06-01T03:03:34.821Z,91.5
2019-06-01T03:04:36.212Z,91.5
2019-06-01T03:05:37.606Z,91.6
2019-06-01T03:06:38.409Z,91.6
2019-06-01T03:07:39.806Z,91.6
2019-06-01T03:08:41.199Z,91.6
2019-06-01T03:09:42.606Z,91.5
2019-06-01T03:10:43.990Z,91.5
2019-06-01T03:11:45.424Z,91.5
2019-06-01T03:12:46.808Z,91.5
2019-06-01T03:13:48.216Z,91.5
2019-06-01T03:14:49.604Z,91.5
2019-06-01T03:15:50.990Z,91.5
2019-06-01T03:16:51.783Z,91.6
2019-06-01T03:18:54.538Z,91.6
2019-06-01T03:19:55.936Z,91.6
2019-06-01T03:20:56.850Z,91.6
2019-06-01T03:21:58.182Z,91.6
2019-06-01T03:22:59.766Z,91.7
2019-06-01T03:23:59.902Z,91.7
2019-06-01T03:25:02.262Z,91.7
2019-06-01T03:26:02.277Z,91.7
2019-06-01T03:28:04.443Z,91.7
2019-06-01T03:29:09.519Z,91.6
2019-06-01T03:30:12.818Z,91.6
2019-06-01T03:31:10.659Z,91.6
2019-06-01T03:32:37.025Z,91.6
2019-06-01T03:34:11.695Z,91.6
2019-06-01T03:35:10.702Z,91.6
2019-06-01T03:36:13.216Z,91.6
2019-06-01T03:38:14.125Z,91.7
2019-06-01T03:39:15.504Z,91.6
2019-06-01T03:46:23.792Z,91.6
2019-06-01T03:47:24.628Z,91.6
2019-06-01T03:48:26.025Z,91.6
2019-06-01T03:53:32.074Z,91.6
2019-06-01T03:54:33.469Z,91.4
2019-06-01T03:55:34.870Z,91.4
2019-06-01T03:57:36.762Z,91.9
2019-06-01T03:58:38.196Z,91.6
2019-06-01T03:59:39.624Z,91.6
2019-06-01T04:00:41.001Z,91.5
2019-06-01T04:01:42.389Z,91.6
2019-06-01T04:06:48.324Z,91.5
2019-06-01T04:07:49.078Z,91.4
2019-06-01T04:08:50.514Z,91.5
2019-06-01T04:09:51.911Z,91.5
2019-06-01T04:10:53.302Z,91.4
2019-06-01T04:11:54.684Z,91.4
2019-06-01T04:12:56.100Z,91.4
2019-06-01T04:13:56.629Z,91.4
2019-06-01T04:14:58.024Z,91.3
2019-06-01T04:15:58.620Z,91.3
2019-06-01T04:17:00.023Z,91.4
2019-06-01T04:19:01.810Z,91.5
2019-06-01T04:20:02.221Z,91.5
2019-06-01T04:22:04.533Z,91.4
2019-06-01T04:23:06.308Z,91.4
2019-06-01T04:24:06.570Z,91.5
2019-06-01T04:25:08.479Z,91.4
2019-06-01T04:26:10.151Z,91.6
2019-06-01T04:27:10.378Z,91.7
2019-06-01T04:28:10.396Z,91.6
2019-06-01T04:30:11.934Z,91.6
2019-06-01T04:31:13.336Z,91.6
2019-06-01T04:33:15.869Z,91.5
2019-06-01T04:34:19.878Z,91.4
2019-06-01T04:35:18.192Z,91.5
2019-06-01T04:36:19.586Z,91.5
2019-06-01T04:37:20.979Z,91.5
2019-06-01T04:39:22.920Z,91.4
2019-06-01T04:41:25.437Z,91.3
2019-06-01T04:42:26.830Z,91.4
2019-06-01T04:44:29.388Z,91.5
2019-06-01T04:45:30.791Z,91.5
2019-06-01T04:46:32.187Z,91.4
2019-06-01T04:49:35.473Z,91.8
2019-06-01T04:50:36.864Z,91.6
2019-06-01T04:51:38.263Z,91.5
2019-06-01T04:52:39.656Z,91.6
2019-06-01T04:53:41.069Z,91.5
2019-06-01T04:54:42.470Z,91.7
2019-06-01T04:55:43.867Z,91.6
2019-06-01T04:56:45.266Z,91.4
2019-06-01T04:57:46.651Z,91.7
2019-06-01T04:58:47.461Z,91.6
2019-06-01T04:59:48.864Z,91.6
2019-06-01T05:00:50.261Z,91.3
2019-06-01T05:01:51.649Z,91.1
2019-06-01T05:03:53.887Z,91.4
2019-06-01T05:04:55.272Z,91
2019-06-01T05:08:59.728Z,90.8
2019-06-01T05:10:00.425Z,91.1
2019-06-01T05:11:06.976Z,90.5
2019-06-01T05:12:02.710Z,90.6
2019-06-01T05:13:07.448Z,90.6
2019-06-01T05:15:05.937Z,90.5
2019-06-01T05:17:08.004Z,90.4
2019-06-01T05:18:10.201Z,90.3
2019-06-01T05:20:12.427Z,90.4
2019-06-01T05:21:13.125Z,90.1
2019-06-01T05:22:12.721Z,90.6
2019-06-01T05:23:13.098Z,90.5
2019-06-01T05:24:14.918Z,90.4
2019-06-01T05:25:15.517Z,89.5
2019-06-01T05:26:17.236Z,90.1
2019-06-01T05:27:17.527Z,89.6
2019-06-01T05:28:17.928Z,88.1
2019-06-01T05:29:18.668Z,87.9
2019-06-01T05:31:25.462Z,87.2
2019-06-01T05:32:21.795Z,86.4
2019-06-01T05:35:25.576Z,84.2
2019-06-01T05:36:26.981Z,83.2
2019-06-01T05:37:28.375Z,82.4
2019-06-01T05:38:29.769Z,81.8
2019-06-01T05:39:30.279Z,80.9
2019-06-01T05:40:31.689Z,81.5
2019-06-01T05:45:37.662Z,78.8
2019-06-01T05:49:41.829Z,75.8
2019-06-01T05:50:43.243Z,75.6
2019-06-01T05:51:44.641Z,75.3
2019-06-01T05:52:46.026Z,74.3
2019-06-01T05:53:47.432Z,73.1
2019-06-01T05:54:48.850Z,72.6
2019-06-01T05:55:50.252Z,72.4
2019-06-01T05:56:51.639Z,72.7
2019-06-01T05:57:53.044Z,71.1
2019-06-01T05:58:54.442Z,70.7
2019-06-01T05:59:55.226Z,70.2
2019-06-01T06:00:56.629Z,70
2019-06-01T06:06:02.567Z,69.5
2019-06-01T06:07:03.965Z,69.1
2019-06-01T06:08:05.378Z,69.2
2019-06-01T06:10:07.791Z,69.1
2019-06-01T06:11:08.987Z,68.4
2019-06-01T06:12:11.395Z,68.1
2019-06-01T06:13:11.460Z,68.3
2019-06-01T06:14:13.505Z,68
2019-06-01T06:15:15.539Z,67.6
2019-06-01T06:16:15.869Z,66.7
2019-06-01T06:17:19.827Z,67
2019-06-01T06:18:17.935Z,66.8
2019-06-01T06:21:20.502Z,66.9
2019-06-01T06:22:22.556Z,66.5
2019-06-01T06:23:22.937Z,66.3
2019-06-01T06:24:24.338Z,65.1
2019-06-01T06:26:26.407Z,66.1
2019-06-01T06:30:30.551Z,67.1
2019-06-01T06:31:31.972Z,66
2019-06-01T06:34:35.483Z,64.5
2019-06-01T06:36:38.042Z,64.7
2019-06-01T06:37:42.536Z,64.9
2019-06-01T06:41:44.343Z,62.6
2019-06-01T06:46:50.285Z,60.2
2019-06-01T06:47:51.679Z,60.4
2019-06-01T06:48:53.071Z,59.5
2019-06-01T06:49:54.465Z,60.3
2019-06-01T06:50:55.236Z,59
2019-06-01T06:53:58.969Z,58.8
2019-06-01T06:55:00.346Z,59.5
2019-06-01T06:56:01.769Z,60.5
2019-06-01T06:57:03.179Z,59.2
2019-06-01T06:58:04.566Z,58.3
2019-06-01T06:59:05.956Z,58.5
2019-06-01T07:00:07.023Z,58.7
2019-06-01T07:02:08.952Z,57.2
2019-06-01T07:03:10.339Z,57.5
2019-06-01T07:05:12.205Z,59.4
2019-06-01T07:06:13.607Z,59.4
2019-06-01T07:07:14.666Z,60.8
2019-06-01T07:08:16.052Z,58.4
2019-06-01T07:09:18.042Z,58.7
2019-06-01T07:10:18.216Z,57.8
2019-06-01T07:11:19.328Z,57
2019-06-01T07:15:23.633Z,55.9
2019-06-01T07:16:24.042Z,55.6
2019-06-01T07:17:25.781Z,57
2019-06-01T07:18:26.073Z,56.5
2019-06-01T07:19:28.071Z,55.8
2019-06-01T07:20:28.457Z,54.5
2019-06-01T07:22:30.384Z,55.1
2019-06-01T07:23:32.356Z,55.4
2019-06-01T07:25:33.857Z,53.9
2019-06-01T07:26:35.271Z,53.4
2019-06-01T07:27:36.662Z,54.9
2019-06-01T07:28:38.069Z,55.3
2019-06-01T07:29:38.865Z,56
2019-06-01T07:31:41.178Z,53.6
2019-06-01T07:32:42.564Z,53.6
2019-06-01T07:34:45.088Z,54.2
2019-06-01T07:35:46.497Z,53.8
2019-06-01T07:37:54.901Z,52.9
2019-06-01T07:38:50.206Z,52.9
2019-06-01T07:39:54.963Z,52.4
2019-06-01T07:40:52.319Z,52.6
2019-06-01T07:42:54.201Z,51.6
2019-06-01T07:43:55.610Z,52.2
2019-06-01T07:44:57.000Z,52
2019-06-01T07:45:58.920Z,51.2
2019-06-01T07:46:59.536Z,51.8
2019-06-01T07:48:00.931Z,54.4
2019-06-01T07:49:02.338Z,53.2
2019-06-01T07:50:03.729Z,52.6
2019-06-01T07:51:05.131Z,51.8
2019-06-01T07:53:07.712Z,51.5
2019-06-01T07:56:11.370Z,53.9
2019-06-01T07:57:12.801Z,53
2019-06-01T07:58:14.210Z,53.6
2019-06-01T08:01:16.914Z,53.7
2019-06-01T08:02:17.508Z,52.9
2019-06-01T08:03:18.929Z,52.3
2019-06-01T08:04:24.223Z,53.9
2019-06-01T08:05:24.995Z,53.1
2019-06-01T08:06:24.362Z,54.3
2019-06-01T08:10:27.911Z,51.8
2019-06-01T08:12:29.872Z,54.3
2019-06-01T08:13:35.697Z,53.4
2019-06-01T08:14:30.710Z,53.2
2019-06-01T08:15:32.004Z,52.6
2019-06-01T08:16:35.735Z,51.4
2019-06-01T08:17:33.132Z,50.9
2019-06-01T08:18:34.524Z,51
2019-06-01T08:22:38.690Z,52.7
2019-06-01T08:23:40.093Z,52.8
2019-06-01T08:25:42.608Z,53.8
2019-06-01T08:26:44.008Z,52.6
2019-06-01T08:28:46.710Z,52.1
2019-06-01T08:29:48.118Z,51.2
2019-06-01T08:30:49.505Z,52
2019-06-01T08:31:56.095Z,51.6
2019-06-01T08:32:51.808Z,53.3
2019-06-01T08:33:53.213Z,53.9
2019-06-01T08:35:09.587Z,54.6
2019-06-01T08:35:55.952Z,55.2
2019-06-01T08:37:58.495Z,54.8
2019-06-01T08:38:59.884Z,52.3
2019-06-01T08:40:01.312Z,51.8
2019-06-01T08:42:03.016Z,53.5
2019-06-01T08:45:06.057Z,52.6
2019-06-01T08:53:14.956Z,50.6
2019-06-01T08:54:15.359Z,51.6
2019-06-01T08:57:19.349Z,52.4
2019-06-01T08:58:20.775Z,52.7
2019-06-01T08:59:21.411Z,52.7
2019-06-01T09:00:22.825Z,51.4
2019-06-01T09:01:24.632Z,52.5
2019-06-01T09:02:24.839Z,51.3
2019-06-01T09:03:25.984Z,50.8
2019-06-01T09:05:31.410Z,51.8
2019-06-01T09:06:29.184Z,51.8
2019-06-01T09:07:29.148Z,51.6
2019-06-01T09:08:29.316Z,53.5
2019-06-01T09:13:35.632Z,53.5
2019-06-01T09:14:35.761Z,53
2019-06-01T09:21:42.949Z,52.8
2019-06-01T09:22:48.384Z,54.2
2019-06-01T09:23:45.536Z,53.7
2019-06-01T09:24:46.945Z,53.5
2019-06-01T09:25:47.724Z,52.6
2019-06-01T09:27:49.935Z,52.9
2019-06-01T09:29:52.507Z,53.2
2019-06-01T09:31:55.040Z,52.1
2019-06-01T09:32:56.433Z,53.4
2019-06-01T09:33:57.259Z,53.5
2019-06-01T09:34:58.685Z,53
2019-06-01T09:36:00.081Z,52.6
2019-06-01T09:37:01.482Z,52.5
2019-06-01T09:38:02.887Z,52.4
2019-06-01T09:40:05.450Z,54
2019-06-01T09:42:08.049Z,52.8
2019-06-01T09:44:09.966Z,52.4
2019-06-01T09:48:17.731Z,53.2
2019-06-01T09:49:16.095Z,53.6
2019-06-01T09:50:17.508Z,52.6
2019-06-01T09:53:21.173Z,53.2
2019-06-01T09:54:22.385Z,53.7
2019-06-01T09:55:23.522Z,52.8
2019-06-01T09:56:24.743Z,52.7
2019-06-01T09:57:26.203Z,53.7
2019-06-01T09:58:28.304Z,55.8
2019-06-01T09:59:27.870Z,54.3
2019-06-01T10:01:30.239Z,51.5
2019-06-01T10:02:32.231Z,52.7
2019-06-01T10:03:32.668Z,52.4
2019-06-01T10:04:32.463Z,51.5
2019-06-01T10:05:33.002Z,53.4
2019-06-01T10:06:34.857Z,53.6
2019-06-01T10:07:35.242Z,52.5
2019-06-01T10:08:36.357Z,53.7
2019-06-01T10:09:37.884Z,54.3
2019-06-01T10:10:38.234Z,52
2019-06-01T10:11:38.599Z,54
2019-06-01T10:12:40.007Z,53.8
2019-06-01T10:14:42.627Z,51.9
2019-06-01T10:15:43.179Z,52.4
2019-06-01T10:16:43.559Z,53.2
2019-06-01T10:17:45.173Z,52.7
2019-06-01T10:18:45.561Z,54.2
2019-06-01T10:19:46.987Z,53.4
2019-06-01T10:20:48.389Z,52.9
2019-06-01T10:21:49.791Z,51.7
2019-06-01T10:24:52.883Z,54.4
2019-06-01T10:30:59.987Z,53.3
2019-06-01T10:34:04.724Z,53.8
2019-06-01T10:35:04.825Z,51.9
2019-06-01T10:37:07.045Z,53.7
2019-06-01T10:38:08.450Z,54
2019-06-01T10:39:09.840Z,53
2019-06-01T10:40:11.269Z,52.6
2019-06-01T10:45:15.859Z,52.2
2019-06-01T10:47:18.449Z,52.2
2019-06-01T10:48:19.841Z,53
2019-06-01T10:49:21.243Z,53
2019-06-01T10:51:23.805Z,53.1
2019-06-01T10:52:25.185Z,53.3
2019-06-01T10:53:26.594Z,52.1
2019-06-01T10:56:28.853Z,55
2019-06-01T10:57:29.569Z,54.5
2019-06-01T10:59:32.346Z,51.9
2019-06-01T11:00:49.248Z,51.6
2019-06-01T11:01:37.367Z,52.2
2019-06-01T11:02:36.620Z,52.9
2019-06-01T11:03:36.835Z,52.9
2019-06-01T11:06:48.968Z,52.5
2019-06-01T11:07:43.463Z,53
2019-06-01T11:08:41.213Z,53.9
2019-06-01T11:09:41.601Z,53.8
2019-06-01T11:10:43.441Z,53.9
2019-06-01T11:15:47.649Z,53.7
2019-06-01T11:17:49.937Z,52.7
2019-06-01T11:18:52.557Z,53.3
2019-06-01T11:21:54.193Z,54.8
2019-06-01T11:23:56.737Z,52.1
2019-06-01T11:24:58.166Z,52.5
2019-06-01T11:25:58.914Z,53.2
2019-06-01T11:27:00.346Z,54
2019-06-01T11:31:05.255Z,53.5
2019-06-01T11:32:06.682Z,54.6
2019-06-01T11:33:08.073Z,54.3
2019-06-01T11:36:10.730Z,55.1
2019-06-01T11:37:15.996Z,55.1
2019-06-01T11:39:14.202Z,56.8
2019-06-01T11:43:18.999Z,54
2019-06-01T11:46:22.610Z,53.8
2019-06-01T11:49:26.283Z,53.8
2019-06-01T11:50:27.683Z,53.4
2019-06-01T11:51:34.877Z,53.5
2019-06-01T11:52:31.606Z,54
2019-06-01T11:53:31.275Z,52.8
2019-06-01T11:56:35.302Z,53.6
2019-06-01T11:57:35.526Z,54
2019-06-01T11:58:37.299Z,54
2019-06-01T11:59:37.588Z,54.6
2019-06-01T12:02:40.180Z,53.5
2019-06-01T12:05:44.292Z,53.2
2019-06-01T12:06:46.790Z,53
2019-06-01T12:07:49.034Z,54.1
2019-06-01T12:11:49.793Z,53.3
2019-06-01T12:12:54.758Z,53.2
2019-06-01T12:13:52.119Z,54.2
2019-06-01T12:15:54.645Z,54.3
2019-06-01T12:16:55.409Z,54.6
2019-06-01T12:17:56.904Z,55.4
2019-06-01T12:18:58.286Z,55.2
2019-06-01T12:24:04.231Z,54.8
2019-06-01T12:25:05.062Z,54.5
2019-06-01T12:26:06.456Z,54.9
2019-06-01T12:27:07.456Z,54.2
2019-06-01T12:29:10.018Z,54.4
2019-06-01T12:33:14.845Z,54.2
2019-06-01T12:34:16.246Z,52.4
2019-06-01T12:35:17.676Z,52.9
2019-06-01T12:36:18.510Z,53.6
2019-06-01T12:37:55.818Z,53.2
2019-06-01T12:38:20.274Z,53.2
2019-06-01T12:39:21.688Z,53.4
2019-06-01T12:43:26.488Z,53.8
2019-06-01T12:44:27.887Z,53.1
2019-06-01T12:45:29.280Z,53.8
2019-06-01T12:47:31.261Z,52.4
2019-06-01T12:50:35.288Z,53.8
2019-06-01T12:51:36.715Z,53.2
2019-06-01T12:52:37.767Z,53.5
2019-06-01T12:53:38.519Z,52.6
2019-06-01T12:54:40.498Z,51.8
2019-06-01T12:55:40.878Z,53
2019-06-01T12:59:45.292Z,52
2019-06-01T13:03:07.365Z,52.6
2019-06-01T13:03:50.058Z,52.2
2019-06-01T13:04:51.452Z,52.1
2019-06-01T13:08:03.026Z,52
2019-06-01T13:08:55.402Z,51.7
2019-06-01T13:09:56.806Z,51.4
2019-06-01T13:10:58.207Z,51.7
2019-06-01T13:11:59.595Z,51.7
2019-06-01T13:15:03.294Z,51.7
2019-06-01T13:16:04.680Z,51.4
2019-06-01T13:17:08.017Z,51.6
2019-06-01T13:21:10.163Z,51.6
2019-06-01T13:24:13.461Z,52.6
2019-06-01T13:25:14.896Z,52.5
2019-06-01T13:26:16.284Z,53.1
2019-06-01T13:27:17.672Z,51.3
2019-06-01T13:28:18.447Z,52.9
2019-06-01T13:29:19.590Z,53.4
2019-06-01T13:30:21.199Z,52.9
2019-06-01T13:31:21.791Z,51.5
2019-06-01T13:32:23.193Z,52.9
2019-06-01T13:33:29.461Z,54.1
2019-06-01T13:34:25.814Z,53.1
2019-06-01T13:35:26.394Z,53.4
2019-06-01T13:37:28.929Z,51.5
2019-06-01T13:38:29.534Z,51.7
2019-06-01T13:39:30.930Z,52.2
2019-06-01T13:40:32.349Z,52
2019-06-01T13:41:33.744Z,51.5
2019-06-01T13:42:35.149Z,52
2019-06-01T13:43:36.538Z,52.7
2019-06-01T13:44:37.855Z,52.4
2019-06-01T13:45:38.577Z,52.4
2019-06-01T13:46:39.326Z,52.7
2019-06-01T13:47:40.439Z,53.1
2019-06-01T13:48:41.224Z,53
2019-06-01T13:50:43.867Z,51.6
2019-06-01T13:54:48.460Z,52.7
2019-06-01T13:55:48.857Z,53.2
2019-06-01T13:56:51.092Z,53.8
2019-06-01T13:57:52.602Z,54.4
2019-06-01T13:59:55.151Z,53.4
2019-06-01T14:00:55.211Z,53.6
2019-06-01T14:01:56.600Z,53.5
2019-06-01T14:05:00.310Z,53.1
2019-06-01T14:06:04.363Z,53.1
2019-06-01T14:07:02.752Z,53.8
2019-06-01T14:08:04.133Z,52.3
2019-06-01T14:09:04.888Z,52.5
2019-06-01T14:11:07.555Z,53.5
2019-06-01T14:12:08.954Z,52.9
2019-06-01T14:13:10.343Z,52.9
2019-06-01T14:14:11.743Z,52.9
2019-06-01T14:19:17.051Z,51.2
2019-06-01T14:20:18.486Z,52
2019-06-01T14:21:19.875Z,51.7
2019-06-01T14:22:21.267Z,52.9
2019-06-01T14:23:22.680Z,52.9
2019-06-01T14:26:26.348Z,53.1
2019-06-01T14:27:27.747Z,52.4
2019-06-01T14:28:29.149Z,52.5
2019-06-01T14:29:29.918Z,52.1
2019-06-01T14:30:31.325Z,52.4
2019-06-01T14:31:31.990Z,53
2019-06-01T14:32:33.387Z,52.5
2019-06-01T14:33:34.791Z,52.1
2019-06-01T14:34:36.184Z,52
2019-06-01T14:36:38.742Z,53.2
2019-06-01T14:37:40.783Z,52.4
2019-06-01T14:38:50.341Z,51.6
2019-06-01T14:39:41.314Z,52.1
2019-06-01T14:40:41.936Z,52.5
2019-06-01T14:42:44.195Z,52.6
2019-06-01T14:43:46.983Z,52.4
2019-06-01T14:44:47.542Z,52.1
2019-06-01T14:45:47.525Z,51.8
2019-06-01T14:47:49.575Z,53.2
2019-06-01T14:48:51.709Z,53.3
2019-06-01T14:49:51.794Z,53.6
2019-06-01T14:50:51.943Z,53
2019-06-01T14:51:53.817Z,52.9
2019-06-01T14:52:54.219Z,53.4
2019-06-01T14:53:55.919Z,53.7
2019-06-01T14:54:56.316Z,52.9
2019-06-01T14:55:58.139Z,53
2019-06-01T14:56:58.533Z,53.4
2019-06-01T14:58:00.116Z,53
2019-06-01T14:59:02.311Z,52.1
2019-06-01T15:00:01.059Z,52.5
2019-06-01T15:01:02.479Z,53.1
2019-06-01T15:05:07.267Z,53
2019-06-01T15:06:08.699Z,52.5
2019-06-01T15:07:10.092Z,52.8
2019-06-01T15:08:11.491Z,51.6
2019-06-01T15:09:20.028Z,51.9
2019-06-01T15:10:13.848Z,52
2019-06-01T15:11:15.259Z,52.5
2019-06-01T15:16:21.209Z,51.1
2019-06-01T15:17:22.598Z,50.8
2019-06-01T15:18:23.990Z,51.1
2019-06-01T15:19:25.417Z,52.1
2019-06-01T15:20:25.715Z,52.1
2019-06-01T15:21:27.150Z,51.9
2019-06-01T15:22:28.543Z,52.2
2019-06-01T15:23:29.937Z,52
2019-06-01T15:24:31.341Z,52.3
2019-06-01T15:27:35.251Z,51.4
2019-06-01T15:30:38.271Z,51.9
2019-06-01T15:31:39.670Z,51.8
2019-06-01T15:32:41.090Z,51.4
2019-06-01T15:33:42.482Z,51.6
2019-06-01T15:34:43.885Z,50.9
2019-06-01T15:35:44.511Z,51.2
2019-06-01T15:37:46.778Z,50.7
2019-06-01T15:40:49.172Z,51.5
2019-06-01T15:45:55.488Z,50.8
2019-06-01T15:46:55.933Z,50.8
2019-06-01T15:47:56.261Z,50.7
2019-06-01T15:48:57.900Z,50.9
2019-06-01T15:49:58.279Z,50.8
2019-06-01T15:51:07.091Z,49.6
2019-06-01T15:53:01.535Z,49.9
2019-06-01T15:56:04.179Z,50.5
2019-06-01T15:57:05.582Z,50.7
2019-06-01T15:58:06.994Z,51
2019-06-01T15:59:08.393Z,50.9
2019-06-01T16:00:09.789Z,51
2019-06-01T16:01:10.556Z,50.7
2019-06-01T16:02:11.951Z,50.5
2019-06-01T16:05:15.631Z,51.3
2019-06-01T16:06:16.204Z,51
2019-06-01T16:08:18.766Z,51
2019-06-01T16:10:20.601Z,51.4
2019-06-01T16:11:21.124Z,51.8
2019-06-01T16:12:22.520Z,52.3
2019-06-01T16:13:23.958Z,51.6
2019-06-01T16:14:25.357Z,52
2019-06-01T16:16:27.890Z,51.6
2019-06-01T16:17:29.286Z,51.1
2019-06-01T16:18:30.710Z,51.4
2019-06-01T16:19:32.298Z,51.5
2019-06-01T16:20:32.884Z,51.9
2019-06-01T16:21:33.658Z,51.7
2019-06-01T16:23:50.667Z,51.9
2019-06-01T16:25:38.569Z,51.6
2019-06-01T16:31:44.264Z,52
2019-06-01T16:32:45.672Z,52
2019-06-01T16:34:48.238Z,51.9
2019-06-01T16:35:49.400Z,52.1
2019-06-01T16:36:50.108Z,52.4
2019-06-01T16:40:55.260Z,53.1
2019-06-01T16:41:55.900Z,52.2
2019-06-01T16:42:57.446Z,52.3
2019-06-01T16:43:59.670Z,52.4
2019-06-01T16:45:00.022Z,51.1
2019-06-01T16:46:03.730Z,51
2019-06-01T16:47:04.585Z,50.9
2019-06-01T16:48:03.909Z,51
2019-06-01T16:52:07.368Z,52.2
2019-06-01T16:53:08.791Z,52.5
2019-06-01T16:54:10.200Z,52.6
2019-06-01T16:55:11.593Z,52.8
2019-06-01T16:56:12.986Z,53.3
2019-06-01T17:02:19.617Z,52.3
2019-06-01T17:03:21.008Z,52.7
2019-06-01T17:08:27.164Z,53.6
2019-06-01T17:09:27.562Z,53.3
2019-06-01T17:10:28.968Z,53.4
2019-06-01T17:12:30.868Z,54.2
2019-06-01T17:13:32.296Z,53.7
2019-06-01T17:14:33.691Z,53.7
2019-06-01T17:15:35.087Z,54
2019-06-01T17:16:36.480Z,54.3
2019-06-01T17:17:37.872Z,54.2
2019-06-01T17:18:39.308Z,54.2
2019-06-01T17:19:40.720Z,54.3
2019-06-01T17:21:43.422Z,54.3
2019-06-01T17:24:46.470Z,54.4
2019-06-01T17:25:47.871Z,54.5
2019-06-01T17:26:49.269Z,54.6
2019-06-01T17:30:54.563Z,55
2019-06-01T17:36:54.794Z,55.4
2019-06-01T17:39:58.268Z,55.8
2019-06-01T17:41:00.390Z,55.7
2019-06-01T17:43:03.097Z,55.9
2019-06-01T17:46:05.381Z,56.8
2019-06-01T17:47:06.268Z,56.9
2019-06-01T17:49:06.352Z,56.3
2019-06-01T17:50:07.746Z,56.1
2019-06-01T17:51:08.750Z,56.4
2019-06-01T17:52:09.893Z,56.1
2019-06-01T17:53:10.277Z,56.3
2019-06-01T17:54:11.990Z,56.7
2019-06-01T17:57:14.021Z,56.5
2019-06-01T17:58:15.456Z,56.6
2019-06-01T17:59:16.858Z,56.9
2019-06-01T18:00:17.433Z,56.9
2019-06-01T18:01:18.831Z,57.2
2019-06-01T18:02:20.221Z,57.3
2019-06-01T18:03:21.621Z,57.6
2019-06-01T18:04:22.440Z,57.9
2019-06-01T18:05:23.867Z,58
2019-06-01T18:06:27.527Z,58.2
2019-06-01T18:10:29.419Z,58.7
2019-06-01T18:11:30.825Z,58.5
2019-06-01T18:13:32.520Z,58.8
2019-06-01T18:15:35.068Z,58.9
2019-06-01T18:17:37.310Z,59.1
2019-06-01T18:18:38.717Z,58.9
2019-06-01T18:19:40.144Z,58.9
2019-06-01T18:20:41.541Z,58.9
2019-06-01T18:21:42.941Z,59
2019-06-01T18:29:51.672Z,60
2019-06-01T18:30:53.069Z,60
2019-06-01T18:34:58.321Z,60.9
2019-06-01T18:35:58.997Z,60.9
2019-06-01T18:39:03.440Z,60.9
2019-06-01T18:43:07.871Z,61.4
2019-06-01T18:44:07.579Z,61
2019-06-01T18:45:07.834Z,61.3
2019-06-01T18:46:08.223Z,61.1
2019-06-01T18:48:12.247Z,61.2
2019-06-01T18:49:12.041Z,62.3
2019-06-01T18:50:17.458Z,62.8
2019-06-01T18:51:14.603Z,62.7
2019-06-01T18:59:15.505Z,64.9
2019-06-01T19:00:16.499Z,63.9
2019-06-01T19:08:34.997Z,63.4
2019-06-01T19:09:27.315Z,63.3
2019-06-01T19:10:28.281Z,63.4
2019-06-01T19:11:36.435Z,63.6
2019-06-01T19:12:30.742Z,63.5
2019-06-01T19:13:32.185Z,63.8
2019-06-01T19:14:33.595Z,63.6
2019-06-01T19:15:34.992Z,63.7
2019-06-01T19:16:36.398Z,64
2019-06-01T19:18:38.959Z,65.2
2019-06-01T19:21:41.994Z,65.8
2019-06-01T19:22:43.392Z,65.8
2019-06-01T19:23:44.842Z,66
2019-06-01T19:27:49.647Z,65.4
2019-06-01T19:30:52.675Z,67.3
2019-06-01T19:33:56.355Z,67.9
2019-06-01T19:35:58.899Z,67.8
2019-06-01T19:37:00.303Z,69.2
2019-06-01T19:38:01.129Z,68.6
2019-06-01T19:41:03.917Z,68.9
2019-06-01T19:42:05.336Z,69
2019-06-01T19:44:07.842Z,69.3
2019-06-01T19:46:09.853Z,69.3
2019-06-01T19:47:11.947Z,69.7
2019-06-01T19:48:12.698Z,69.9
2019-06-01T19:50:14.414Z,69.9
2019-06-01T19:51:16.648Z,69.7
2019-06-01T19:53:17.246Z,70.3
2019-06-01T19:55:19.955Z,70.1
2019-06-01T19:56:21.945Z,70.2
2019-06-01T19:57:23.934Z,70.3
2019-06-01T19:58:22.563Z,70.6
2019-06-01T20:01:24.769Z,71.2
2019-06-01T20:02:34.573Z,70.7
2019-06-01T20:03:26.905Z,70.8
2019-06-01T20:04:28.924Z,71
2019-06-01T20:05:28.570Z,71.2
2019-06-01T20:07:31.094Z,72.5
2019-06-01T20:09:32.822Z,72.6
2019-06-01T20:10:34.210Z,72
2019-06-01T20:18:43.236Z,71.9
2019-06-01T20:19:44.657Z,71.8
2019-06-01T20:21:47.294Z,72.4
2019-06-01T20:22:48.690Z,73.1
2019-06-01T20:23:50.129Z,73.4
2019-06-01T20:24:51.516Z,73.6
2019-06-01T20:25:52.928Z,73.4
2019-06-01T20:27:55.453Z,74.1
2019-06-01T20:28:56.873Z,73.9
2019-06-01T20:29:58.266Z,73.8
2019-06-01T20:30:59.684Z,74.5
2019-06-01T20:32:00.439Z,74.3
2019-06-01T20:33:01.852Z,74.5
2019-06-01T20:35:04.422Z,75.5